Time;durP1;ratioP1;P1;durP2;ratioP2;P2;SDS_P1;SDS_P2;PMS_P1;PMS_P2;Temp;Humidity;BMP_temperature;BMP_pressure;BME280_temperature;BME280_humidity;BME280_pressure;Samples;Min_cycle;Max_cycle;Signal;HPM_P1;HPM_P2
2022/03/15 00:00:32;;;;;;;9.80;4.77;;;8.10;99.90;;;8.42;70.93;101910.78;5031592;28;20603;-67
2022/03/15 00:02:59;;;;;;;6.50;4.33;;;8.10;99.90;;;8.41;70.68;101906.50;5031552;28;20708;-67
2022/03/15 00:05:26;;;;;;;4.47;4.07;;;8.10;99.90;;;8.36;71.61;101903.25;5029926;28;20659;-68
2022/03/15 00:07:53;;;;;;;4.50;3.50;;;8.00;99.90;;;8.36;70.78;101900.66;5011075;28;20652;-67
2022/03/15 00:10:21;;;;;;;6.70;4.40;;;8.00;99.90;;;8.36;71.45;101888.50;5031928;28;20608;-67
2022/03/15 00:12:48;;;;;;;7.63;5.30;;;8.10;99.90;;;8.30;71.55;101880.13;5022680;28;20639;-67
2022/03/15 00:15:15;;;;;;;12.70;5.80;;;8.00;99.90;;;8.24;71.53;101881.16;5051274;28;20765;-67
2022/03/15 00:17:47;;;;;;;8.37;5.27;;;8.00;99.90;;;8.25;71.46;101890.72;5034207;28;20633;-68
2022/03/15 00:20:18;;;;;;;6.30;4.63;;;8.00;99.90;;;8.29;71.14;101894.00;5031657;28;20612;-67
2022/03/15 00:22:47;;;;;;;6.97;3.50;;;8.00;99.90;;;8.28;71.34;101894.94;5029826;28;20628;-67
2022/03/15 00:25:18;;;;;;;6.57;4.60;;;8.00;99.90;;;8.23;71.78;101892.50;5031867;28;20632;-67
2022/03/15 00:27:52;;;;;;;7.73;4.57;;;8.00;99.90;;;8.19;71.71;101882.28;5032855;28;20613;-68
2022/03/15 00:30:21;;;;;;;8.33;4.83;;;7.90;99.90;;;8.19;71.78;101892.69;5031544;28;20596;-67
2022/03/15 00:32:49;;;;;;;4.00;3.50;;;7.90;99.90;;;8.18;72.32;101890.97;5030294;28;20729;-67
2022/03/15 00:35:18;;;;;;;5.00;3.67;;;7.90;99.90;;;8.18;71.59;101894.44;5030825;28;20767;-68
2022/03/15 00:37:47;;;;;;;5.17;4.10;;;7.90;99.90;;;8.10;72.94;101873.13;5019638;28;21110;-68
2022/03/15 00:40:16;;;;;;;8.53;5.00;;;7.80;99.90;;;8.06;73.61;101875.91;5052831;28;20627;-67
2022/03/15 00:42:48;;;;;;;5.83;4.50;;;7.80;99.90;;;8.06;73.28;101875.91;5049262;28;20978;-68
2022/03/15 00:45:16;;;;;;;5.53;4.60;;;7.80;99.90;;;8.05;72.69;101879.44;5022290;28;20640;-68
2022/03/15 00:47:44;;;;;;;7.80;5.00;;;7.70;99.90;;;8.05;73.05;101875.06;5025659;28;21256;-67
2022/03/15 00:50:11;;;;;;;5.37;4.10;;;7.70;99.90;;;8.06;72.64;101868.09;5030535;28;20990;-67
2022/03/15 00:52:38;;;;;;;9.00;4.77;;;7.80;99.90;;;8.08;71.79;101874.09;5030884;28;20615;-67
2022/03/15 00:55:05;;;;;;;6.23;4.90;;;7.80;99.90;;;8.09;72.03;101865.41;5030842;28;20721;-67
2022/03/15 00:57:33;;;;;;;7.43;5.50;;;7.80;99.90;;;7.98;72.75;101862.38;5029781;28;21164;-67
2022/03/15 01:00:00;;;;;;;13.03;5.10;;;7.70;99.90;;;7.97;72.60;101876.28;5029074;28;21006;-67
2022/03/15 01:02:27;;;;;;;7.73;4.90;;;7.70;99.90;;;8.05;72.49;101872.44;5020636;28;20622;-67
2022/03/15 01:04:54;;;;;;;8.67;6.33;;;7.70;99.90;;;8.02;73.03;101866.53;5030767;28;20714;-67
2022/03/15 01:07:21;;;;;;;5.93;4.87;;;7.80;99.90;;;8.02;73.18;101867.41;5030962;28;20616;-67
2022/03/15 01:09:48;;;;;;;10.20;5.67;;;7.80;99.90;;;7.98;74.49;101862.38;5022482;28;20640;-67
2022/03/15 01:12:16;;;;;;;8.30;5.50;;;7.80;99.90;;;7.99;74.00;101857.13;5029936;28;20643;-67
2022/03/15 01:14:43;;;;;;;5.90;5.30;;;7.70;99.90;;;7.84;74.37;101861.22;5038425;28;20746;-67
2022/03/15 01:17:10;;;;;;;7.10;5.20;;;7.60;99.90;;;7.94;74.17;101863.44;5036847;28;20632;-67
2022/03/15 01:19:37;;;;;;;7.28;5.65;;;7.70;99.90;;;7.96;74.05;101854.66;5029737;28;20592;-67
2022/03/15 01:22:04;;;;;;;6.57;5.07;;;7.70;99.90;;;7.91;73.53;101859.19;5010893;28;20647;-67
2022/03/15 01:24:31;;;;;;;8.00;5.17;;;7.60;99.90;;;7.93;74.57;101857.38;5018147;28;20660;-67
2022/03/15 01:26:58;;;;;;;9.10;5.25;;;7.60;99.90;;;7.93;73.60;101862.56;5029772;28;20643;-67
2022/03/15 01:29:26;;;;;;;6.72;5.03;;;7.60;99.90;;;7.89;74.02;101863.63;5030679;28;20226;-67
2022/03/15 01:31:54;;;;;;;7.87;5.33;;;7.60;99.90;;;7.94;74.22;101863.44;5025317;28;20198;-67
2022/03/15 01:34:22;;;;;;;7.78;4.80;;;7.60;99.90;;;7.89;74.90;101862.75;5021487;28;20628;-67
2022/03/15 01:36:50;;;;;;;9.10;5.53;;;7.60;99.90;;;7.82;74.51;101859.56;5012395;28;20218;-67
2022/03/15 01:39:17;;;;;;;9.53;5.80;;;7.60;99.90;;;7.79;74.13;101846.72;5029515;28;21128;-67
2022/03/15 01:41:45;;;;;;;9.67;5.33;;;7.50;99.90;;;7.81;73.52;101858.72;5029047;28;20633;-67
2022/03/15 01:44:22;;;;;;;7.93;5.57;;;7.50;99.90;;;7.75;74.32;101853.78;5030370;28;20629;-67
2022/03/15 01:46:50;;;;;;;9.97;6.30;;;7.50;99.90;;;7.75;74.34;101833.00;5030492;28;20222;-67
2022/03/15 01:49:18;;;;;;;6.40;5.03;;;7.50;99.90;;;7.75;74.43;101845.97;5028935;28;20671;-67
2022/03/15 01:51:46;;;;;;;3.87;3.13;;;7.50;99.90;;;7.77;74.32;101859.75;5030477;28;20636;-67
2022/03/15 01:54:15;;;;;;;11.38;5.40;;;7.50;99.90;;;7.76;74.89;101832.09;5030731;28;21237;-68
2022/03/15 01:56:42;;;;;;;9.07;5.43;;;7.50;99.90;;;7.77;75.44;101840.75;5050058;28;20673;-67
2022/03/15 01:59:11;;;;;;;6.88;4.95;;;7.50;99.90;;;7.79;75.18;101836.34;5050763;28;20615;-67
2022/03/15 02:01:41;;;;;;;9.88;6.10;;;7.50;99.90;;;7.72;76.41;101840.06;5033698;28;20202;-67
2022/03/15 02:04:09;;;;;;;9.20;6.38;;;7.50;99.90;;;7.73;75.71;101834.00;5030378;28;20209;-67
2022/03/15 02:06:38;;;;;;;8.40;5.80;;;7.40;99.90;;;7.72;75.95;101827.94;5029310;28;20300;-67
2022/03/15 02:09:10;;;;;;;9.17;5.43;;;7.50;99.90;;;7.75;76.28;101816.59;5013093;28;20613;-67
2022/03/15 02:11:37;;;;;;;10.18;5.05;;;7.40;99.90;;;7.73;75.94;101818.41;5030229;28;20661;-67
2022/03/15 02:14:04;;;;;;;9.70;5.20;;;7.50;99.90;;;7.78;75.17;101827.69;5030612;28;20202;-67
2022/03/15 02:16:32;;;;;;;11.23;6.35;;;7.50;99.90;;;7.80;74.68;101819.81;5011469;28;20698;-67
2022/03/15 02:19:02;;;;;;;9.93;5.80;;;7.50;99.90;;;7.80;74.57;101818.06;5031526;28;20606;-67
2022/03/15 02:21:29;;;;;;;8.30;5.80;;;7.60;99.90;;;7.90;73.83;101821.09;5034497;28;20202;-67
2022/03/15 02:23:57;;;;;;;7.75;5.50;;;7.60;99.90;;;7.93;73.72;101821.00;5012081;28;20201;-67
2022/03/15 02:26:24;;;;;;;9.10;5.73;;;7.70;99.90;;;7.96;74.46;101825.22;5031269;28;20217;-67
2022/03/15 02:28:51;;;;;;;7.93;5.90;;;7.70;99.90;;;7.95;74.31;101824.38;5031460;28;20717;-66
2022/03/15 02:31:20;;;;;;;7.88;5.38;;;7.70;99.90;;;8.00;73.31;101821.59;5010364;28;20629;-67
2022/03/15 02:33:48;;;;;;;7.17;4.50;;;7.70;99.90;;;7.97;74.33;101827.75;5028017;28;20202;-68
2022/03/15 02:36:16;;;;;;;6.20;4.50;;;7.70;99.90;;;8.02;73.52;101819.75;5028534;28;20672;-67
2022/03/15 02:38:45;;;;;;;6.25;4.75;;;7.80;99.90;;;8.07;73.32;101815.22;5035330;28;20627;-67
2022/03/15 02:41:13;;;;;;;6.40;4.50;;;7.80;99.90;;;8.00;73.96;101812.03;5038754;28;20225;-68
2022/03/15 02:43:42;;;;;;;5.60;4.17;;;7.80;99.90;;;7.90;74.43;101818.50;5030108;28;20632;-67
2022/03/15 02:46:11;;;;;;;9.50;5.60;;;7.70;99.90;;;7.92;74.25;101810.69;5012848;28;21278;-68
2022/03/15 02:48:38;;;;;;;6.78;4.25;;;7.70;99.90;;;7.86;74.29;101805.75;5030703;28;20643;-67
2022/03/15 02:51:08;;;;;;;6.27;4.43;;;7.60;99.90;;;7.89;74.84;101818.59;5012260;28;20584;-67
2022/03/15 02:53:37;;;;;;;8.57;4.20;;;7.60;99.90;;;7.91;74.10;101811.56;5030206;28;20601;-67
2022/03/15 02:56:11;;;;;;;7.50;4.83;;;7.60;99.90;;;7.91;74.03;101806.38;5029195;28;20717;-67
2022/03/15 02:58:39;;;;;;;11.57;4.60;;;7.60;99.90;;;7.90;74.19;101802.09;5029851;28;20649;-64
2022/03/15 03:01:07;;;;;;;4.35;3.90;;;7.60;99.90;;;7.92;74.26;101803.72;5011059;28;20632;-67
2022/03/15 03:03:35;;;;;;;4.33;3.93;;;7.60;99.90;;;7.89;74.35;101792.59;5021254;28;20194;-67
2022/03/15 03:06:02;;;;;;;3.50;3.20;;;7.60;99.90;;;7.86;74.13;101787.56;5030782;28;21245;-67
2022/03/15 03:08:30;;;;;;;5.57;4.60;;;7.60;99.90;;;7.78;74.96;101786.13;5032392;28;21216;-67
2022/03/15 03:10:58;;;;;;;6.43;4.90;;;7.60;99.90;;;7.77;75.12;101788.78;5032729;28;20682;-68
2022/03/15 03:13:26;;;;;;;6.23;5.50;;;7.50;99.90;;;7.81;75.00;101785.13;5018246;28;20635;-67
2022/03/15 03:15:56;;;;;;;11.23;5.23;;;7.60;99.90;;;7.93;74.61;101784.63;5002523;28;20668;-67
2022/03/15 03:18:34;;;;;;;8.87;5.43;;;7.70;99.90;;;7.86;74.78;101790.16;5015303;28;20743;-67
2022/03/15 03:21:03;;;;;;;8.13;5.13;;;7.60;99.90;;;7.83;75.37;101789.38;5032064;28;20960;-67
2022/03/15 03:23:34;;;;;;;10.30;5.33;;;7.60;99.90;;;7.86;75.80;101792.75;5032667;28;20707;-67
2022/03/15 03:26:03;;;;;;;9.10;5.00;;;7.60;99.90;;;7.81;75.96;101775.56;5014752;28;20656;-67
2022/03/15 03:28:36;;;;;;;8.47;5.10;;;7.60;99.90;;;7.86;75.93;101779.75;5032135;28;20651;-67
2022/03/15 03:31:07;;;;;;;7.67;5.53;;;7.60;99.90;;;7.88;76.01;101775.34;5023816;28;21208;-67
2022/03/15 03:33:34;;;;;;;7.63;4.90;;;7.60;99.90;;;7.79;76.14;101776.56;4996318;28;20637;-67
2022/03/15 03:36:02;;;;;;;7.80;5.67;;;7.60;99.90;;;7.81;75.25;101769.56;5027498;28;20676;-67
2022/03/15 03:38:30;;;;;;;7.27;5.40;;;7.60;99.90;;;7.83;75.49;101770.34;5015421;28;20605;-67
2022/03/15 03:40:57;;;;;;;9.82;5.25;;;7.60;99.90;;;7.84;75.76;101778.06;5033255;28;20636;-67
2022/03/15 03:43:25;;;;;;;7.80;4.80;;;7.60;99.90;;;7.90;76.06;101769.13;5016187;28;20190;-66
2022/03/15 03:45:52;;;;;;;8.60;5.03;;;7.60;99.90;;;7.86;76.69;101761.56;5021398;28;20647;-67
2022/03/15 03:48:19;;;;;;;7.67;5.50;;;7.60;99.90;;;7.87;76.05;101764.09;5032118;28;20644;-67
2022/03/15 03:50:46;;;;;;;8.70;5.23;;;7.60;99.90;;;7.87;76.69;101752.84;5009743;28;20628;-67
2022/03/15 03:53:14;;;;;;;5.70;5.13;;;7.60;99.90;;;7.80;75.52;101762.66;5044750;28;20638;-68
2022/03/15 03:55:41;;;;;;;9.73;6.27;;;7.60;99.90;;;7.86;75.48;101761.56;5030213;28;20735;-67
2022/03/15 03:58:08;;;;;;;9.70;6.20;;;7.60;99.90;;;7.88;75.67;101755.38;5032977;28;20584;-67
2022/03/15 04:00:35;;;;;;;8.53;5.70;;;7.70;99.90;;;7.71;77.20;101760.44;5007539;28;20615;-67
2022/03/15 04:03:03;;;;;;;9.45;5.82;;;7.50;99.90;;;7.64;76.73;101762.47;5052946;28;20611;-68
2022/03/15 04:05:30;;;;;;;7.63;4.82;;;7.50;99.90;;;7.64;77.26;101756.44;5045356;28;20225;-67
2022/03/15 04:08:01;;;;;;;9.93;5.57;;;7.40;99.90;;;7.70;76.47;101761.34;5033075;28;20206;-67
2022/03/15 04:10:34;;;;;;;5.40;4.85;;;7.50;99.90;;;7.69;76.82;101755.31;5031887;28;20765;-68
2022/03/15 04:13:02;;;;;;;8.20;4.80;;;7.50;99.90;;;7.73;76.92;101756.88;5020688;28;20412;-67
2022/03/15 04:15:31;;;;;;;6.72;4.95;;;7.50;99.90;;;7.71;76.10;101748.31;5027969;28;21214;-67
2022/03/15 04:17:58;;;;;;;5.70;4.13;;;7.50;99.90;;;7.69;76.14;101760.50;5014081;28;20654;-67
2022/03/15 04:20:25;;;;;;;12.07;5.25;;;7.50;99.90;;;7.71;76.88;101758.69;5030529;28;20596;-67
2022/03/15 04:22:52;;;;;;;6.85;4.55;;;7.50;99.90;;;7.64;77.23;101749.50;5031444;28;20238;-67
2022/03/15 04:25:19;;;;;;;7.37;5.50;;;7.40;99.90;;;7.72;76.56;101749.16;5014934;28;20623;-69
2022/03/15 04:27:46;;;;;;;4.97;4.43;;;7.50;99.90;;;7.66;75.86;101755.47;5031803;28;20620;-67
2022/03/15 04:30:14;;;;;;;6.22;4.88;;;7.50;99.90;;;7.69;76.33;101764.84;5030755;28;21203;-67
2022/03/15 04:32:41;;;;;;;6.53;4.45;;;7.40;99.90;;;7.62;76.53;101755.66;5013871;28;20201;-67
2022/03/15 04:35:07;;;;;;;9.80;5.97;;;7.40;99.90;;;7.60;77.29;101753.09;5032649;28;20225;-67
2022/03/15 04:37:35;;;;;;;8.57;6.55;;;7.40;99.90;;;7.43;77.48;101745.16;5013655;28;20767;-67
2022/03/15 04:40:03;;;;;;;11.35;5.85;;;7.30;99.90;;;7.44;76.81;101743.41;5031087;28;20694;-68
2022/03/15 04:42:30;;;;;;;7.45;5.35;;;7.20;99.90;;;7.37;78.14;101755.81;5010726;28;20281;-67
2022/03/15 04:44:57;;;;;;;6.93;5.15;;;7.20;99.90;;;7.40;77.42;101750.50;5011257;28;21710;-67
2022/03/15 04:47:24;;;;;;;6.80;5.00;;;7.20;99.90;;;7.37;78.13;101744.59;5002912;28;20213;-67
2022/03/15 04:49:51;;;;;;;5.82;5.00;;;7.20;99.90;;;7.41;77.66;101736.59;5013732;28;20214;-67
2022/03/15 04:52:18;;;;;;;5.85;4.82;;;7.20;99.90;;;7.49;77.83;101731.94;5029633;28;20202;-67
2022/03/15 04:54:45;;;;;;;7.13;4.97;;;7.20;99.90;;;7.45;78.30;101727.75;5013326;28;20674;-67
2022/03/15 04:57:12;;;;;;;6.18;5.05;;;7.20;99.90;;;7.47;78.37;101725.13;5030917;28;20230;-67
2022/03/15 04:59:40;;;;;;;6.03;4.70;;;7.30;99.90;;;7.40;78.21;101721.09;5030480;28;20194;-67
2022/03/15 05:02:06;;;;;;;7.60;5.50;;;7.20;99.90;;;7.42;78.54;101714.91;5030263;28;20205;-67
2022/03/15 05:04:34;;;;;;;7.28;4.88;;;7.20;99.90;;;7.40;78.83;101723.69;5031204;28;20620;-67
2022/03/15 05:07:01;;;;;;;6.97;5.05;;;7.10;99.90;;;7.33;78.77;101722.25;5014611;28;20317;-67
2022/03/15 05:09:33;;;;;;;6.00;5.25;;;7.10;99.90;;;7.42;78.27;101717.53;5027901;28;20789;-67
2022/03/15 05:12:00;;;;;;;7.28;5.18;;;7.20;99.90;;;7.39;78.04;101709.03;5030454;28;20202;-67
2022/03/15 05:14:27;;;;;;;8.13;5.30;;;7.20;99.90;;;7.36;78.13;101717.78;5008416;28;20204;-68
2022/03/15 05:16:54;;;;;;;5.72;4.45;;;7.20;99.90;;;7.32;79.11;101707.59;5012936;28;20703;-67
2022/03/15 05:19:21;;;;;;;6.60;5.10;;;7.10;99.90;;;7.32;79.53;101715.38;5029979;28;20241;-67
2022/03/15 05:21:48;;;;;;;10.70;5.30;;;7.10;99.90;;;7.41;77.85;101713.22;5030680;28;20202;-67
2022/03/15 05:24:16;;;;;;;6.30;4.38;;;7.20;99.90;;;7.38;78.29;101717.72;5029657;28;20604;-67
2022/03/15 05:26:43;;;;;;;7.33;4.70;;;7.20;99.90;;;7.40;79.01;101715.88;5030169;28;20229;-67
2022/03/15 05:29:10;;;;;;;8.23;4.72;;;7.20;99.90;;;7.45;78.12;101711.34;5028565;28;20608;-67
2022/03/15 05:31:37;;;;;;;9.52;5.35;;;7.20;99.90;;;7.34;78.81;101710.97;5012898;28;20238;-67
2022/03/15 05:34:04;;;;;;;7.63;4.23;;;7.20;99.90;;;7.25;79.23;101709.59;5049914;28;20204;-67
2022/03/15 05:36:31;;;;;;;5.65;5.00;;;7.10;99.90;;;7.23;79.46;101702.75;5049725;28;20664;-68
2022/03/15 05:38:57;;;;;;;6.90;5.10;;;7.00;99.90;;;7.28;79.19;101713.81;5031752;28;20199;-67
2022/03/15 05:41:24;;;;;;;7.40;5.10;;;7.10;99.90;;;7.22;79.42;101706.28;5030660;28;20281;-67
2022/03/15 05:43:55;;;;;;;4.80;4.22;;;7.10;99.90;;;7.29;79.03;101705.94;5012416;28;20605;-67
2022/03/15 05:46:23;;;;;;;5.68;4.22;;;7.10;99.90;;;7.21;79.74;101704.56;5013467;28;20272;-67
2022/03/15 05:48:50;;;;;;;9.82;5.03;;;7.00;99.90;;;7.27;79.50;101704.31;5029758;28;20303;-67
2022/03/15 05:51:17;;;;;;;8.55;4.65;;;7.00;99.90;;;7.27;79.56;101702.56;5030556;28;20209;-67
2022/03/15 05:53:44;;;;;;;5.18;4.18;;;7.10;99.90;;;7.26;78.94;101706.06;5029309;28;20198;-67
2022/03/15 05:56:11;;;;;;;6.97;4.75;;;7.10;99.90;;;7.16;79.88;101701.31;5012645;28;20236;-67
2022/03/15 05:58:42;;;;;;;5.57;4.60;;;7.00;99.90;;;7.27;79.13;101707.78;5029983;28;20212;-68
2022/03/15 06:01:09;;;;;;;7.28;5.65;;;7.10;99.90;;;7.26;79.10;101702.66;5029125;28;20308;-67
2022/03/15 06:03:37;;;;;;;6.90;5.15;;;7.00;99.90;;;7.22;80.01;101698.50;5028409;28;20202;-67
2022/03/15 06:06:03;;;;;;;7.75;5.55;;;7.00;99.90;;;7.28;79.72;101701.69;5011913;28;20224;-67
2022/03/15 06:08:30;;;;;;;5.80;4.47;;;7.00;99.90;;;7.30;78.87;101693.81;5030721;28;20254;-67
2022/03/15 06:10:57;;;;;;;5.93;4.93;;;7.10;99.90;;;7.32;79.10;101692.00;5011944;28;20202;-66
2022/03/15 06:13:24;;;;;;;6.57;5.10;;;7.20;99.90;;;7.31;78.66;101695.50;5029684;28;20194;-66
2022/03/15 06:15:51;;;;;;;7.75;4.80;;;7.10;99.90;;;7.35;78.81;101700.50;5029308;28;20230;-67
2022/03/15 06:18:18;;;;;;;5.78;4.68;;;7.10;99.90;;;7.36;79.52;101702.19;5032910;28;20199;-67
2022/03/15 06:20:46;;;;;;;8.35;5.53;;;7.20;99.90;;;7.28;79.88;101696.50;5048683;28;20662;-67
2022/03/15 06:23:13;;;;;;;7.80;4.93;;;7.10;99.90;;;7.36;78.61;101704.81;4992925;28;20213;-67
2022/03/15 06:25:39;;;;;;;5.70;4.95;;;7.20;99.90;;;7.36;78.57;101715.19;5016475;28;20222;-67
2022/03/15 06:28:06;;;;;;;6.47;4.82;;;7.20;99.90;;;7.44;78.71;101705.31;5038629;28;20218;-67
2022/03/15 06:30:33;;;;;;;9.73;4.93;;;7.30;99.90;;;7.47;78.85;101699.16;5035415;28;20213;-67
2022/03/15 06:33:00;;;;;;;5.80;4.23;;;7.30;99.90;;;7.47;77.92;101707.78;5013931;28;20205;-66
2022/03/15 06:35:29;;;;;;;6.88;3.95;;;7.30;99.90;;;7.46;77.99;101716.47;5029801;28;20650;-67
2022/03/15 06:37:56;;;;;;;6.22;4.20;;;7.30;99.90;;;7.49;78.94;101708.56;5028914;28;20229;-66
2022/03/15 06:40:25;;;;;;;7.38;4.38;;;7.30;99.90;;;7.51;78.32;101708.50;5031892;28;20615;-66
2022/03/15 06:42:54;;;;;;;5.10;4.15;;;7.40;99.90;;;7.47;78.60;101707.78;5029006;28;20194;-67
2022/03/15 06:45:22;;;;;;;4.75;3.90;;;7.30;99.90;;;7.48;78.52;101704.28;5016365;28;20224;-67
2022/03/15 06:47:49;;;;;;;6.40;4.43;;;7.40;99.90;;;7.49;77.93;101705.97;5014530;28;20206;-66
2022/03/15 06:50:16;;;;;;;5.30;4.28;;;7.30;99.90;;;7.47;77.99;101701.75;5019043;28;20312;-67
2022/03/15 06:52:45;;;;;;;6.35;4.93;;;7.30;99.90;;;7.53;78.54;101699.75;5042482;28;20575;-67
2022/03/15 06:55:13;;;;;;;4.72;4.28;;;7.30;99.90;;;7.52;79.14;101699.78;5033564;28;20312;-67
2022/03/15 06:57:41;;;;;;;14.00;4.70;;;7.40;99.90;;;7.58;78.94;101700.38;5015856;28;20245;-66
2022/03/15 07:00:13;;;;;;;4.97;4.40;;;7.40;99.90;;;7.66;77.46;101695.72;5032524;28;21100;-68
2022/03/15 07:02:40;;;;;;;9.85;5.53;;;7.50;99.90;;;7.70;77.36;101699.88;5015496;28;20627;-69
2022/03/15 07:05:09;;;;;;;7.63;4.80;;;7.60;99.90;;;7.71;77.77;101695.50;5032156;28;20599;-66
2022/03/15 07:07:37;;;;;;;5.70;4.63;;;7.70;99.90;;;7.72;77.91;101692.00;5032498;28;20647;-66
2022/03/15 07:10:06;;;;;;;5.90;4.43;;;7.60;99.90;;;7.79;77.94;101696.03;5016010;28;20288;-66
2022/03/15 07:12:34;;;;;;;13.03;4.90;;;7.70;99.90;;;7.88;77.24;101698.19;5037485;28;20224;-66
2022/03/15 07:15:03;;;;;;;7.53;4.40;;;7.80;99.90;;;8.12;76.10;101696.28;5041436;28;20677;-66
2022/03/15 07:17:31;;;;;;;13.03;5.20;;;8.00;99.90;;;8.22;75.87;101692.38;5033170;28;20702;-66
2022/03/15 07:19:58;;;;;;;8.37;5.37;;;8.20;99.90;;;8.38;74.88;101688.16;5011937;28;21220;-66
2022/03/15 07:22:26;;;;;;;6.70;4.37;;;8.40;99.90;;;8.34;74.47;101691.81;4997056;28;20616;-66
2022/03/15 07:24:53;;;;;;;5.27;4.20;;;8.40;99.90;;;8.53;73.93;101693.50;5011699;28;20613;-67
2022/03/15 07:27:21;;;;;;;5.93;4.60;;;8.50;99.90;;;8.65;74.09;101689.47;5031892;28;20644;-66
2022/03/15 07:29:48;;;;;;;7.23;4.93;;;8.70;99.90;;;8.67;73.80;101687.66;5013364;28;20639;-66
2022/03/15 07:32:15;;;;;;;9.07;5.13;;;8.70;99.90;;;8.63;74.66;101683.50;5026032;28;20636;-66
2022/03/15 07:34:42;;;;;;;5.63;4.63;;;8.70;99.90;;;8.72;73.55;101683.06;5013036;28;20632;-66
2022/03/15 07:37:09;;;;;;;5.93;4.80;;;8.70;99.90;;;8.78;73.18;101679.31;5031272;28;20660;-67
2022/03/15 07:39:36;;;;;;;6.80;5.33;;;8.80;99.90;;;8.77;73.56;101683.72;5032223;28;20623;-67
2022/03/15 07:42:04;;;;;;;6.37;5.27;;;8.80;99.90;;;8.57;73.52;101673.38;5014895;28;20624;-67
2022/03/15 07:44:31;;;;;;;8.63;5.53;;;8.60;99.90;;;8.53;74.99;101679.66;4996296;28;20621;-67
2022/03/15 07:46:58;;;;;;;7.47;5.43;;;8.50;99.90;;;8.49;74.51;101680.72;5031504;28;21075;-66
2022/03/15 07:49:25;;;;;;;11.77;5.50;;;8.40;99.90;;;8.43;75.34;101678.41;5032033;28;20708;-67
2022/03/15 07:51:52;;;;;;;5.80;5.20;;;8.40;99.90;;;8.52;75.05;101677.97;5029536;28;20629;-67
2022/03/15 07:54:19;;;;;;;10.33;6.40;;;8.40;99.90;;;8.45;74.57;101681.78;5021843;28;20627;-67
2022/03/15 07:56:47;;;;;;;8.40;5.70;;;8.30;99.90;;;8.55;74.48;101681.28;5013692;28;20763;-67
2022/03/15 07:59:19;;;;;;;8.67;5.60;;;8.40;99.90;;;8.59;74.61;101676.75;5026259;28;20676;-66
2022/03/15 08:01:46;;;;;;;9.90;4.90;;;8.40;99.90;;;8.61;74.29;101677.53;5028041;28;20631;-67
2022/03/15 08:04:13;;;;;;;6.07;4.90;;;8.50;99.90;;;8.71;74.22;101678.78;5011963;28;21223;-67
2022/03/15 08:06:40;;;;;;;16.47;4.90;;;8.50;99.90;;;8.71;74.54;101670.97;5007918;28;20652;-67
2022/03/15 08:09:08;;;;;;;5.30;4.63;;;8.60;99.90;;;8.79;73.84;101663.66;5021571;28;20625;-67
2022/03/15 08:11:40;;;;;;;7.57;4.97;;;8.70;99.90;;;8.86;73.86;101666.81;5023587;28;21337;-67
2022/03/15 08:14:09;;;;;;;6.80;4.20;;;8.70;99.90;;;8.78;73.46;101661.97;5014175;28;20633;-67
2022/03/15 08:16:37;;;;;;;6.37;3.90;;;8.70;99.90;;;8.75;74.05;101664.72;5011148;28;21016;-67
2022/03/15 08:19:04;;;;;;;3.90;3.50;;;8.70;99.90;;;8.77;73.56;101664.66;5014370;28;20652;-67
2022/03/15 08:21:31;;;;;;;7.40;3.67;;;8.60;99.90;;;8.75;73.99;101661.28;5014347;28;20709;-67
2022/03/15 08:23:58;;;;;;;5.70;3.90;;;8.70;99.90;;;8.79;73.68;101657.59;5031075;28;21303;-67
2022/03/15 08:26:25;;;;;;;11.13;4.90;;;8.60;99.90;;;8.81;73.81;101658.38;5030662;28;20724;-67
2022/03/15 08:28:52;;;;;;;3.57;3.27;;;8.60;99.90;;;8.85;74.16;101650.34;5013364;28;20632;-67
2022/03/15 08:31:20;;;;;;;3.37;3.10;;;8.70;99.90;;;8.82;73.53;101660.88;5030640;28;21128;-67
2022/03/15 08:33:47;;;;;;;9.83;3.47;;;8.70;99.90;;;8.90;73.71;101661.34;5030882;28;20716;-67
2022/03/15 08:36:14;;;;;;;4.03;3.40;;;8.80;99.90;;;8.95;73.68;101656.78;5031290;28;20655;-67
2022/03/15 08:38:41;;;;;;;4.60;3.23;;;8.80;99.90;;;8.98;73.74;101643.63;5029987;28;20656;-67
2022/03/15 08:41:09;;;;;;;2.93;2.70;;;8.80;99.90;;;8.96;73.51;101635.06;4997936;28;20658;-67
2022/03/15 08:43:36;;;;;;;6.67;3.80;;;8.90;99.90;;;9.02;73.56;101642.56;5030532;28;20629;-67
2022/03/15 08:46:04;;;;;;;8.10;4.70;;;8.90;99.90;;;9.04;73.32;101640.72;5032025;28;20647;-67
2022/03/15 08:48:32;;;;;;;8.07;4.67;;;8.90;99.90;;;9.12;73.74;101633.34;5030946;28;20708;-67
2022/03/15 08:51:00;;;;;;;7.60;5.17;;;9.00;99.90;;;9.20;73.27;101626.00;5030567;28;20636;-67
2022/03/15 08:53:32;;;;;;;4.40;3.73;;;9.10;99.90;;;9.27;73.15;101622.16;5031281;28;20620;-67
2022/03/15 08:56:01;;;;;;;8.83;5.57;;;9.20;99.90;;;9.30;73.34;101609.00;5013711;28;20751;-67
2022/03/15 08:58:28;;;;;;;8.23;5.70;;;9.20;99.90;;;9.34;73.70;101604.47;5030727;28;20671;-67
2022/03/15 09:00:55;;;;;;;5.60;4.57;;;9.30;99.90;;;9.45;73.32;101607.38;5029329;28;20639;-67
2022/03/15 09:03:24;;;;;;;8.07;5.10;;;9.40;99.90;;;9.56;73.41;101591.19;5029629;28;21080;-67
2022/03/15 09:05:52;;;;;;;10.17;5.40;;;9.50;99.90;;;9.68;72.15;101590.53;5014019;28;20736;-67
2022/03/15 09:08:18;;;;;;;6.90;5.10;;;9.60;99.90;;;9.79;71.82;101586.44;5032845;28;20628;-67
2022/03/15 09:10:47;;;;;;;10.57;5.97;;;9.80;99.90;;;9.88;71.40;101598.94;5030299;28;20636;-67
2022/03/15 09:13:14;;;;;;;8.00;5.00;;;9.90;99.90;;;10.00;70.57;101607.91;5029797;28;20620;-67
2022/03/15 09:15:41;;;;;;;9.77;5.23;;;10.00;99.90;;;10.15;69.51;101599.28;5029478;28;20747;-67
2022/03/15 09:18:08;;;;;;;5.67;4.73;;;10.10;99.90;;;10.17;69.37;101597.41;5029884;28;20704;-67
2022/03/15 09:20:36;;;;;;;13.77;6.40;;;10.10;99.90;;;10.25;69.34;101584.78;5029296;28;20615;-67
2022/03/15 09:23:03;;;;;;;8.27;5.50;;;10.20;99.90;;;10.29;69.37;101583.69;5032563;28;20670;-67
2022/03/15 09:25:32;;;;;;;7.30;4.67;;;10.20;99.90;;;10.36;69.30;101584.19;5031420;28;20743;-67
2022/03/15 09:27:59;;;;;;;10.70;4.67;;;10.30;99.90;;;10.36;68.75;101579.81;5019823;28;20718;-67
2022/03/15 09:30:30;;;;;;;5.00;4.50;;;10.20;99.90;;;10.36;68.14;101572.00;5022524;28;20632;-67
2022/03/15 09:32:58;;;;;;;11.03;5.80;;;10.30;99.90;;;10.42;68.40;101573.41;4999089;28;20622;-67
2022/03/15 09:35:25;;;;;;;10.27;6.03;;;10.40;99.90;;;10.48;68.57;101579.13;5021935;28;20653;-66
2022/03/15 09:37:53;;;;;;;11.60;5.27;;;10.40;99.90;;;10.53;68.43;101579.72;5019386;28;20720;-67
2022/03/15 09:40:25;;;;;;;6.83;5.00;;;10.50;99.90;;;10.58;68.06;101569.88;5027048;28;20635;-67
2022/03/15 09:42:59;;;;;;;11.33;5.40;;;10.50;99.90;;;10.61;67.53;101563.59;5010540;28;20637;-68
2022/03/15 09:45:34;;;;;;;5.50;4.80;;;10.60;99.90;;;10.62;68.22;101562.69;5010764;28;20666;-65
2022/03/15 09:48:15;;;;;;;10.10;5.00;;;10.60;99.90;;;10.65;67.52;101544.22;5028924;28;20723;-67
2022/03/15 09:50:43;;;;;;;6.77;5.30;;;10.60;99.90;;;10.65;66.48;101542.47;5024760;28;21156;-67
2022/03/15 09:53:10;;;;;;;6.87;5.60;;;10.60;99.90;;;10.70;66.96;101536.97;5026953;28;20712;-67
2022/03/15 09:55:37;;;;;;;7.00;5.20;;;10.60;99.90;;;10.73;66.94;101537.63;5016709;28;20656;-67
2022/03/15 09:58:04;;;;;;;6.90;5.87;;;10.70;99.90;;;10.70;67.65;101536.97;5024312;28;20671;-68
2022/03/15 10:00:31;;;;;;;8.50;6.00;;;10.70;99.90;;;10.75;67.05;101538.38;5006577;28;20606;-67
2022/03/15 10:02:59;;;;;;;7.70;5.00;;;10.70;99.90;;;10.86;66.17;101529.94;5020794;28;20682;-67
2022/03/15 10:05:26;;;;;;;5.10;4.57;;;10.80;99.90;;;10.92;66.35;101529.59;5031360;28;20637;-67
2022/03/15 10:07:53;;;;;;;8.23;4.97;;;10.90;99.90;;;10.86;66.27;101536.00;5013092;28;20632;-67
2022/03/15 10:10:20;;;;;;;11.10;4.50;;;10.80;99.90;;;10.83;67.12;101528.34;5028972;28;20625;-67
2022/03/15 10:12:47;;;;;;;6.83;4.57;;;10.80;99.90;;;10.81;67.34;101527.59;4999260;28;20678;-67
2022/03/15 10:15:19;;;;;;;5.80;4.17;;;10.70;99.90;;;10.68;67.13;101525.78;4993801;28;20724;-68
2022/03/15 10:18:04;;;;;;;9.30;5.40;;;10.70;99.90;;;10.69;67.64;101528.31;5016529;28;20668;-67
2022/03/15 10:20:41;;;;;;;6.77;4.87;;;10.50;99.90;;;10.68;68.08;101526.63;5044478;28;21191;-68
2022/03/15 10:23:12;;;;;;;9.00;5.50;;;10.50;99.90;;;10.71;68.64;101525.63;5030731;28;20627;-67
2022/03/15 10:25:48;;;;;;;7.33;4.70;;;10.60;99.90;;;10.74;68.57;101510.63;5008220;28;20648;-67